createdAt,value
2023-02-14T07:23:02.333Z,101834.16
2023-02-14T07:26:05.894Z,101833.53
2023-02-14T07:29:08.879Z,101835.62
2023-02-14T07:32:12.014Z,101832.94
2023-02-14T07:35:15.683Z,101836.75
2023-02-14T07:38:18.548Z,101838.41
2023-02-14T07:41:21.192Z,101846.31
2023-02-14T07:44:24.845Z,101847.84
2023-02-14T07:47:31.742Z,101846.25
2023-02-14T07:50:34.775Z,101850.47
2023-02-14T07:53:37.662Z,101844.75
2023-02-14T07:56:40.693Z,101861.97
2023-02-14T07:59:43.507Z,101858.19
2023-02-14T08:02:46.610Z,101860.69
2023-02-14T08:05:57.324Z,101852.16
2023-02-14T08:09:00.785Z,101854.78
2023-02-14T08:12:22.397Z,101853.19
2023-02-14T08:15:53.915Z,101852.78
2023-02-14T08:18:58.054Z,101846.72
2023-02-14T08:22:00.663Z,101844.53
2023-02-14T08:25:03.781Z,101846.47
2023-02-14T08:28:07.045Z,101846.25
2023-02-14T08:31:35.821Z,101853.47
2023-02-14T08:34:38.746Z,101848.31
2023-02-14T08:37:41.606Z,101856.78
2023-02-14T08:40:44.293Z,101852.91
2023-02-14T08:43:48.968Z,101852.72
2023-02-14T08:46:51.961Z,101851.50
2023-02-14T08:49:56.456Z,101844.75
2023-02-14T08:52:59.505Z,101845.47
2023-02-14T08:56:08.475Z,101844.22
2023-02-14T08:59:11.756Z,101856.75
2023-02-14T09:02:16.370Z,101852.06
2023-02-14T09:05:23.513Z,101849.31
2023-02-14T09:08:26.809Z,101851.66
2023-02-14T09:11:29.807Z,101850.56
2023-02-14T09:14:37.640Z,101843.03
2023-02-14T09:17:40.349Z,101836.72
2023-02-14T09:20:44.735Z,101837.06
2023-02-14T09:23:47.985Z,101843.22
2023-02-14T09:26:50.967Z,101846.66
2023-02-14T09:29:53.915Z,101847.72
2023-02-14T09:32:57.216Z,101848.75
2023-02-14T09:36:18.971Z,101850.53
2023-02-14T09:39:22.186Z,101855.59
2023-02-14T09:42:45.761Z,101845.78
2023-02-14T09:45:54.062Z,101850.13
2023-02-14T09:48:58.786Z,101857.59
2023-02-14T09:52:05.896Z,101852.78
2023-02-14T09:55:15.826Z,101861.16
2023-02-14T09:58:27.064Z,101852.12
2023-02-14T10:01:41.132Z,101861.06
2023-02-14T10:05:15.124Z,101858.50
2023-02-14T10:08:33.030Z,101866.38
2023-02-14T10:11:37.383Z,101853.06
2023-02-14T10:14:41.084Z,101849.59
2023-02-14T10:17:55.814Z,101846.91
2023-02-14T10:21:02.715Z,101854.28
2023-02-14T10:24:19.214Z,101844.25
2023-02-14T10:27:33.655Z,101845.25
2023-02-14T10:30:47.465Z,101836.47
2023-02-14T10:33:57.955Z,101843.69
2023-02-14T10:37:16.551Z,101839.31
2023-02-14T10:40:48.268Z,101837.69
2023-02-14T10:44:25.763Z,101829.28
2023-02-14T10:47:36.883Z,101827.00
2023-02-14T10:51:03.437Z,101821.22
2023-02-14T10:54:23.513Z,101816.78
2023-02-14T10:57:32.508Z,101815.66
2023-02-14T11:00:39.238Z,101813.72
2023-02-14T11:04:07.088Z,101811.41
2023-02-14T11:07:28.121Z,101814.66
2023-02-14T11:10:35.930Z,101817.75
2023-02-14T11:13:41.707Z,101812.97
2023-02-14T11:16:44.624Z,101812.56
2023-02-14T11:20:19.963Z,101803.53
2023-02-14T11:23:24.937Z,101807.44
2023-02-14T11:26:34.571Z,101812.69
2023-02-14T11:29:52.680Z,101808.41
2023-02-14T11:32:56.535Z,101808.19
2023-02-14T11:36:00.792Z,101811.88
2023-02-14T11:39:18.659Z,101803.63
2023-02-14T11:43:02.189Z,101801.78
2023-02-14T11:46:15.620Z,101805.47
2023-02-14T11:49:32.700Z,101799.50
2023-02-14T11:52:48.737Z,101801.06
2023-02-14T11:55:56.830Z,101799.00
2023-02-14T12:25:46.908Z,101774.50
2023-02-14T12:29:09.950Z,101783.44
2023-02-14T12:32:32.882Z,101768.78
2023-02-14T12:35:47.294Z,101765.53
2023-02-14T12:38:56.230Z,101770.22
2023-02-14T12:42:18.106Z,101766.31
2023-02-14T12:45:30.301Z,101759.97
2023-02-14T12:48:49.804Z,101751.00
2023-02-14T12:52:18.486Z,101752.66
2023-02-14T12:55:37.004Z,101754.56
2023-02-14T12:59:14.061Z,101750.22
2023-02-14T13:02:43.731Z,101752.91
2023-02-14T13:05:49.092Z,101744.19
2023-02-14T13:09:30.404Z,101747.66
2023-02-14T13:13:00.374Z,101745.75
2023-02-14T13:16:21.631Z,101743.72
2023-02-14T13:20:01.621Z,101742.44
2023-02-14T13:23:53.567Z,101733.97
2023-02-14T13:27:06.387Z,101735.50
2023-02-14T13:30:32.160Z,101747.25
2023-02-14T13:33:44.414Z,101740.44
2023-02-14T13:36:47.752Z,101733.72
2023-02-14T13:40:09.454Z,101731.06
2023-02-14T13:43:12.226Z,101736.88
2023-02-14T13:46:18.747Z,101731.47
2023-02-14T13:49:37.312Z,101727.75
2023-02-14T13:52:47.626Z,101726.31
2023-02-14T13:55:56.437Z,101730.16
2023-02-14T13:59:06.008Z,101721.56
2023-02-14T14:02:47.619Z,101720.50
2023-02-14T14:06:05.132Z,101718.59
2023-02-14T14:09:10.752Z,101717.38
2023-02-14T14:12:30.359Z,101723.47
2023-02-14T14:16:33.955Z,101728.19
2023-02-14T14:19:41.016Z,101734.97
2023-02-14T14:22:53.350Z,101735.03
2023-02-14T14:25:59.415Z,101731.38
2023-02-14T14:29:10.031Z,101731.78
2023-02-14T14:32:34.620Z,101735.53
2023-02-14T14:35:37.295Z,101728.97
2023-02-14T14:38:50.838Z,101718.72
2023-02-14T14:41:53.451Z,101719.50
2023-02-14T14:44:59.495Z,101717.59
2023-02-14T14:48:12.739Z,101722.47
2023-02-14T14:51:36.198Z,101726.50
2023-02-14T14:54:40.217Z,101725.81
2023-02-14T14:57:50.288Z,101725.72
2023-02-14T15:00:53.121Z,101726.28
2023-02-14T15:04:12.442Z,101719.00
2023-02-14T15:07:24.166Z,101715.88
2023-02-14T15:10:30.498Z,101719.94
2023-02-14T15:13:52.773Z,101723.78
2023-02-14T15:17:27.040Z,101723.72
2023-02-14T15:20:29.898Z,101721.37
2023-02-14T15:23:33.305Z,101722.38
2023-02-14T15:26:36.290Z,101717.72
2023-02-14T15:29:39.372Z,101719.19
2023-02-14T15:32:42.564Z,101724.69
2023-02-14T15:35:48.150Z,101728.28
2023-02-14T15:39:16.809Z,101728.28
2023-02-14T15:42:33.070Z,101714.94
2023-02-14T15:45:36.707Z,101718.94
2023-02-14T15:48:43.005Z,101723.28
2023-02-14T15:51:51.270Z,101733.09
2023-02-14T15:54:54.707Z,101723.28
2023-02-14T15:58:04.847Z,101721.69
2023-02-14T16:01:09.246Z,101722.22
2023-02-14T16:04:12.670Z,101722.47
2023-02-14T16:07:28.090Z,101727.19
2023-02-14T16:10:38.437Z,101735.63
2023-02-14T16:29:13.862Z,101751.91
2023-02-14T16:43:10.101Z,101755.37
2023-02-14T16:46:15.647Z,101758.13
2023-02-14T16:49:18.713Z,101758.72
2023-02-14T16:52:26.316Z,101754.66
2023-02-14T16:55:31.266Z,101757.53
2023-02-14T16:58:36.790Z,101757.12
2023-02-14T17:01:40.150Z,101765.25
2023-02-14T17:04:58.583Z,101768.47
2023-02-14T17:08:04.785Z,101773.28
2023-02-14T17:26:22.421Z,101778.19
2023-02-14T17:29:26.404Z,101781.19
2023-02-14T17:32:30.496Z,101776.16
2023-02-14T17:35:36.380Z,101780.72
2023-02-14T17:38:40.672Z,101779.03
2023-02-14T17:41:44.090Z,101779.09
2023-02-14T17:44:47.127Z,101782.06
2023-02-14T17:47:52.649Z,101778.91
2023-02-14T17:50:57.400Z,101772.94
2023-02-14T17:54:00.834Z,101782.75
2023-02-14T17:57:04.724Z,101772.72
2023-02-14T18:00:11.636Z,101772.91
2023-02-14T18:03:15.610Z,101776.53
2023-02-14T18:06:21.929Z,101773.63
2023-02-14T18:09:25.964Z,101765.22
2023-02-14T18:12:39.089Z,101768.44
2023-02-14T18:15:46.626Z,101767.16
2023-02-14T18:18:54.067Z,101780.56
2023-02-14T18:22:02.752Z,101766.94
2023-02-14T18:25:07.498Z,101762.50
2023-02-14T18:28:15.720Z,101765.87
2023-02-14T18:31:20.226Z,101757.44
2023-02-14T18:34:25.587Z,101758.25
2023-02-14T18:37:29.207Z,101755.72
2023-02-14T18:40:32.708Z,101754.25
2023-02-14T18:43:39.941Z,101757.03
2023-02-14T18:47:35.801Z,101755.94
2023-02-14T18:50:39.408Z,101763.97
2023-02-14T18:53:47.256Z,101760.62
2023-02-14T18:56:52.122Z,101766.50
2023-02-14T18:59:55.439Z,101753.44
2023-02-14T19:03:00.975Z,101748.22
2023-02-14T19:06:06.758Z,101748.31
2023-02-14T19:09:16.746Z,101757.53
2023-02-14T19:16:54.541Z,101772.41
2023-02-14T19:19:58.136Z,101770.00
2023-02-14T19:23:01.281Z,101766.31
2023-02-14T19:26:14.763Z,101773.97
2023-02-14T19:29:32.319Z,101771.31
2023-02-14T19:32:38.329Z,101765.63
2023-02-14T19:35:41.277Z,101752.37
2023-02-14T19:38:49.472Z,101760.72
2023-02-14T19:42:19.681Z,101759.34
2023-02-14T19:45:23.313Z,101761.41
2023-02-14T19:48:26.268Z,101769.37
2023-02-14T19:51:33.276Z,101769.56
2023-02-14T19:54:40.365Z,101769.47
2023-02-14T20:19:41.407Z,101773.78
2023-02-14T20:22:48.142Z,101771.31
2023-02-14T20:25:52.775Z,101763.88
2023-02-14T20:29:06.890Z,101763.56
2023-02-14T20:32:13.649Z,101777.34
2023-02-14T20:35:21.772Z,101776.44
2023-02-14T20:38:25.332Z,101771.41
2023-02-14T20:41:36.260Z,101775.56
2023-02-14T20:44:41.602Z,101772.44
2023-02-14T20:47:50.557Z,101776.84
2023-02-14T20:50:54.286Z,101773.97
2023-02-14T20:53:58.152Z,101774.28
2023-02-14T20:57:02.281Z,101774.38
2023-02-14T21:00:09.842Z,101765.19
2023-02-14T21:03:13.148Z,101758.94
2023-02-14T21:06:20.233Z,101768.47
2023-02-14T21:09:23.611Z,101769.72
2023-02-14T21:12:28.264Z,101761.94
2023-02-14T21:15:31.301Z,101759.41
2023-02-14T21:18:39.584Z,101758.66
2023-02-14T21:21:42.548Z,101755.09
2023-02-14T21:24:45.926Z,101755.06
2023-02-14T21:29:10.695Z,101751.78
2023-02-14T21:32:14.962Z,101759.69
2023-02-14T21:35:18.005Z,101764.12
2023-02-14T21:38:22.676Z,101765.34
2023-02-14T21:41:29.101Z,101772.44
2023-02-14T21:44:51.119Z,101769.63
2023-02-14T21:48:13.128Z,101769.81
2023-02-14T21:51:18.350Z,101768.09
2023-02-14T21:54:21.438Z,101765.81
2023-02-14T21:57:24.693Z,101768.34
2023-02-14T22:00:46.543Z,101771.03
2023-02-14T22:03:50.091Z,101764.97
2023-02-14T22:06:53.532Z,101774.50
2023-02-14T22:09:57.138Z,101781.53
2023-02-14T22:13:00.035Z,101775.50
2023-02-14T22:16:08.041Z,101772.81
2023-02-14T22:19:17.412Z,101781.56
2023-02-14T22:22:20.447Z,101780.97
2023-02-14T22:25:24.806Z,101779.37
2023-02-14T22:28:29.647Z,101780.41
2023-02-14T22:31:38.367Z,101782.16
2023-02-14T22:34:41.542Z,101786.34
2023-02-14T22:37:44.326Z,101782.84
2023-02-14T22:40:47.419Z,101782.09
2023-02-14T22:43:50.585Z,101784.78
2023-02-14T22:46:53.614Z,101780.62
2023-02-14T22:50:01.300Z,101788.66
2023-02-14T22:53:04.874Z,101783.44
2023-02-14T22:56:15.645Z,101785.97
2023-02-14T22:59:21.464Z,101785.06
2023-02-14T23:02:26.045Z,101787.66
2023-02-14T23:05:29.311Z,101785.09
2023-02-14T23:08:33.237Z,101777.44
2023-02-14T23:11:38.800Z,101779.19
2023-02-14T23:15:01.673Z,101775.81
2023-02-14T23:18:26.111Z,101781.78
2023-02-14T23:21:47.229Z,101775.72
2023-02-14T23:24:54.355Z,101778.34
2023-02-14T23:27:57.448Z,101779.37
2023-02-14T23:31:02.764Z,101780.25
2023-02-14T23:34:10.284Z,101775.91
2023-02-14T23:37:14.018Z,101772.50
2023-02-14T23:40:16.690Z,101769.16
2023-02-14T23:43:22.682Z,101768.09
2023-02-14T23:46:28.236Z,101766.44
2023-02-14T23:49:33.201Z,101768.22
2023-02-14T23:52:38.488Z,101769.06
2023-02-14T23:55:41.617Z,101767.47
2023-02-14T23:58:45.886Z,101770.13
